createdAt,value
2023-01-01T00:00:08.958Z,27.33
2023-01-01T00:02:38.307Z,31.48
2023-01-01T00:05:08.699Z,36.92
2023-01-01T00:07:36.757Z,33.30
2023-01-01T00:10:23.397Z,23.20
2023-01-01T00:12:51.381Z,18.33
2023-01-01T00:15:19.378Z,20.60
2023-01-01T00:17:47.390Z,17.52
2023-01-01T00:20:16.697Z,18.52
2023-01-01T00:22:54.562Z,16.88
2023-01-01T00:25:23.708Z,20.88
2023-01-01T00:27:51.913Z,20.23
2023-01-01T00:30:20.000Z,17.45
2023-01-01T00:32:55.407Z,15.95
2023-01-01T00:35:25.676Z,17.55
2023-01-01T00:37:54.268Z,14.57
2023-01-01T00:40:22.587Z,15.23
2023-01-01T00:42:50.984Z,13.75
2023-01-01T00:45:22.268Z,13.55
2023-01-01T00:47:51.468Z,12.23
2023-01-01T00:50:19.866Z,11.50
2023-01-01T00:52:49.993Z,10.55
2023-01-01T00:55:18.080Z,11.85
2023-01-01T00:57:46.102Z,12.57
2023-01-01T01:00:15.837Z,12.13
2023-01-01T01:02:43.885Z,10.50
2023-01-01T01:05:12.109Z,10.55
2023-01-01T01:07:40.597Z,8.98
2023-01-01T01:10:12.167Z,7.22
2023-01-01T01:12:40.408Z,7.22
2023-01-01T01:15:10.107Z,7.80
2023-01-01T01:17:38.373Z,8.38
2023-01-01T01:20:07.541Z,7.97
2023-01-01T01:22:35.840Z,7.13
2023-01-01T01:25:04.844Z,6.88
2023-01-01T01:27:34.355Z,6.50
2023-01-01T01:30:02.303Z,6.00
2023-01-01T01:32:30.234Z,6.43
2023-01-01T01:34:58.195Z,5.70
2023-01-01T01:37:26.205Z,5.95
2023-01-01T01:39:54.416Z,5.55
2023-01-01T01:42:22.918Z,6.10
2023-01-01T01:44:57.986Z,6.53
2023-01-01T01:47:30.728Z,6.55
2023-01-01T01:50:04.081Z,5.72
2023-01-01T01:52:35.557Z,4.57
2023-01-01T01:55:06.951Z,5.20
2023-01-01T01:57:35.472Z,5.32
2023-01-01T02:00:11.019Z,5.38
2023-01-01T02:02:44.650Z,4.88
2023-01-01T02:05:13.401Z,5.93
2023-01-01T02:07:41.746Z,5.00
2023-01-01T02:10:10.415Z,5.45
2023-01-01T02:12:38.378Z,3.67
2023-01-01T02:15:10.017Z,4.13
2023-01-01T02:17:45.275Z,3.83
2023-01-01T02:20:24.896Z,3.97
2023-01-01T02:23:25.135Z,3.85
2023-01-01T02:26:09.980Z,3.28
2023-01-01T02:28:51.667Z,4.05
2023-01-01T02:31:23.540Z,3.97
2023-01-01T02:33:54.523Z,4.00
2023-01-01T02:36:24.627Z,3.58
2023-01-01T02:38:55.751Z,3.97
2023-01-01T02:41:28.337Z,3.90
2023-01-01T02:46:24.734Z,3.55
2023-01-01T02:48:54.650Z,3.55
2023-01-01T02:51:30.294Z,3.97
2023-01-01T02:54:03.954Z,3.95
2023-01-01T02:56:40.023Z,4.35
2023-01-01T02:59:40.059Z,3.70
2023-01-01T03:02:18.059Z,3.90
2023-01-01T03:04:58.614Z,4.03
2023-01-01T03:07:40.983Z,5.05
2023-01-01T03:10:15.164Z,6.22
2023-01-01T03:12:48.750Z,7.00
2023-01-01T03:15:26.275Z,6.65
2023-01-01T03:18:01.214Z,4.70
2023-01-01T03:20:32.747Z,5.07
2023-01-01T03:23:04.529Z,4.60
2023-01-01T03:25:35.921Z,5.28
2023-01-01T03:28:08.544Z,4.70
2023-01-01T03:30:40.813Z,5.05
2023-01-01T03:35:48.082Z,4.05
2023-01-01T03:38:20.686Z,4.63
2023-01-01T03:40:51.836Z,3.83
2023-01-01T03:43:26.417Z,3.20
2023-01-01T03:45:57.642Z,2.85
2023-01-01T03:48:25.593Z,4.35
2023-01-01T03:51:03.010Z,3.67
2023-01-01T03:53:39.468Z,3.35
2023-01-01T03:56:15.367Z,3.22
2023-01-01T03:58:50.586Z,3.30
2023-01-01T04:01:25.342Z,3.05
2023-01-01T04:03:54.203Z,3.25
2023-01-01T04:06:22.558Z,3.20
2023-01-01T04:08:54.345Z,3.85
2023-01-01T04:11:43.605Z,4.32
2023-01-01T04:14:11.632Z,4.30
2023-01-01T04:16:41.264Z,3.70
2023-01-01T04:19:09.241Z,4.00
2023-01-01T04:21:37.149Z,5.22
2023-01-01T04:24:05.431Z,4.82
2023-01-01T04:26:33.371Z,6.68
2023-01-01T04:29:01.285Z,5.85
2023-01-01T04:31:29.155Z,6.78
2023-01-01T04:33:58.441Z,6.53
2023-01-01T04:36:26.321Z,6.30
2023-01-01T04:38:54.573Z,7.30
2023-01-01T04:41:22.523Z,7.40
2023-01-01T04:43:51.453Z,7.18
2023-01-01T04:46:21.272Z,8.10
2023-01-01T04:48:49.596Z,8.82
2023-01-01T04:51:20.793Z,9.02
2023-01-01T04:53:49.022Z,7.72
2023-01-01T04:56:21.736Z,6.50
2023-01-01T04:58:49.861Z,7.40
2023-01-01T05:01:19.997Z,6.85
2023-01-01T05:03:48.844Z,7.45
2023-01-01T05:06:18.896Z,6.82
2023-01-01T05:08:48.546Z,6.20
2023-01-01T05:11:18.290Z,8.27
2023-01-01T05:13:48.060Z,6.82
2023-01-01T05:16:18.028Z,7.22
2023-01-01T05:18:46.134Z,6.90
2023-01-01T05:21:15.852Z,8.23
2023-01-01T05:23:45.400Z,8.23
2023-01-01T05:26:15.094Z,5.90
2023-01-01T05:28:43.489Z,6.15
2023-01-01T05:31:13.835Z,5.80
2023-01-01T05:33:42.809Z,6.15
2023-01-01T05:36:15.724Z,6.45
2023-01-01T05:38:45.237Z,7.82
2023-01-01T05:41:15.351Z,8.13
2023-01-01T05:43:43.329Z,7.85
2023-01-01T05:46:13.926Z,7.97
2023-01-01T05:48:41.967Z,7.32
2023-01-01T05:51:12.055Z,6.28
2023-01-01T05:53:40.386Z,7.80
2023-01-01T05:56:10.082Z,7.75
2023-01-01T05:58:38.363Z,6.80
2023-01-01T06:01:10.827Z,7.30
2023-01-01T06:03:38.799Z,7.05
2023-01-01T06:06:08.262Z,7.15
2023-01-01T06:08:36.363Z,6.93
2023-01-01T06:11:06.439Z,7.95
2023-01-01T06:13:36.364Z,8.27
2023-01-01T06:16:05.168Z,6.80
2023-01-01T06:18:36.080Z,7.57
2023-01-01T06:21:08.311Z,7.35
2023-01-01T06:26:09.876Z,7.95
2023-01-01T06:28:39.481Z,8.20
2023-01-01T06:31:09.498Z,7.88
2023-01-01T06:33:38.013Z,8.75
2023-01-01T06:36:07.996Z,8.77
2023-01-01T06:38:37.483Z,7.18
2023-01-01T06:41:07.277Z,7.72
2023-01-01T06:43:36.828Z,8.13
2023-01-01T06:46:07.962Z,7.72
2023-01-01T06:48:37.468Z,7.97
2023-01-01T06:51:11.555Z,8.52
2023-01-01T06:53:39.683Z,7.72
2023-01-01T06:56:08.445Z,5.40
2023-01-01T06:58:37.125Z,6.75
2023-01-01T07:01:08.989Z,6.38
2023-01-01T07:03:37.646Z,6.55
2023-01-01T07:06:06.399Z,6.85
2023-01-01T07:08:34.660Z,7.53
2023-01-01T07:11:02.997Z,6.38
2023-01-01T07:13:31.642Z,7.30
2023-01-01T07:15:59.749Z,6.65
2023-01-01T07:18:29.493Z,7.25
2023-01-01T07:20:59.434Z,7.10
2023-01-01T07:23:28.909Z,6.07
2023-01-01T07:25:57.673Z,6.68
2023-01-01T07:28:26.785Z,5.90
2023-01-01T07:30:54.861Z,5.93
2023-01-01T07:33:24.535Z,5.63
2023-01-01T07:35:53.832Z,7.18
2023-01-01T07:38:21.775Z,6.20
2023-01-01T07:40:49.785Z,6.65
2023-01-01T07:43:17.700Z,6.25
2023-01-01T07:45:45.605Z,5.90
2023-01-01T07:48:16.499Z,6.60
2023-01-01T07:50:44.829Z,6.28
2023-01-01T07:53:14.146Z,5.75
2023-01-01T07:55:42.117Z,6.45
2023-01-01T07:58:10.904Z,5.57
2023-01-01T08:00:38.975Z,6.15
2023-01-01T08:03:06.968Z,6.28
2023-01-01T08:05:35.867Z,5.70
2023-01-01T08:08:03.968Z,6.28
2023-01-01T08:10:33.352Z,6.53
2023-01-01T08:13:01.738Z,5.53
2023-01-01T08:15:29.887Z,6.85
2023-01-01T08:17:58.660Z,8.18
2023-01-01T08:20:26.823Z,6.93
2023-01-01T08:22:55.020Z,6.28
2023-01-01T08:25:23.526Z,5.97
2023-01-01T08:27:52.919Z,6.30
2023-01-01T08:30:20.911Z,6.68
2023-01-01T08:32:48.883Z,6.72
2023-01-01T08:35:16.960Z,7.90
2023-01-01T08:37:44.945Z,7.30
2023-01-01T08:40:14.212Z,7.57
2023-01-01T08:42:42.171Z,6.13
2023-01-01T08:45:12.295Z,6.47
2023-01-01T08:47:40.202Z,7.20
2023-01-01T08:50:09.515Z,6.82
2023-01-01T08:52:37.504Z,6.82
2023-01-01T08:55:06.074Z,6.72
2023-01-01T08:57:34.008Z,6.63
2023-01-01T09:00:02.006Z,6.65
2023-01-01T09:02:31.390Z,8.65
2023-01-01T09:04:59.508Z,6.13
2023-01-01T09:07:27.497Z,6.00
2023-01-01T09:09:56.099Z,8.18
2023-01-01T09:12:24.092Z,5.40
2023-01-01T09:14:52.094Z,6.22
2023-01-01T09:17:20.016Z,4.95
2023-01-01T09:19:49.354Z,7.10
2023-01-01T09:22:17.290Z,6.20
2023-01-01T09:24:45.266Z,6.43
2023-01-01T09:27:13.181Z,6.88
2023-01-01T09:29:41.157Z,5.25
2023-01-01T09:32:09.086Z,6.15
2023-01-01T09:34:36.982Z,7.07
2023-01-01T09:37:06.314Z,6.55
2023-01-01T09:39:34.316Z,8.40
2023-01-01T09:42:17.932Z,6.72
2023-01-01T09:44:56.426Z,5.72
2023-01-01T09:47:29.712Z,6.05
2023-01-01T09:50:01.871Z,5.57
2023-01-01T09:52:41.547Z,6.38
2023-01-01T09:55:19.173Z,6.75
2023-01-01T09:57:47.099Z,6.82
2023-01-01T10:00:20.349Z,7.35
2023-01-01T10:03:16.474Z,8.75
2023-01-01T10:05:55.060Z,9.27
2023-01-01T10:08:35.559Z,8.38
2023-01-01T10:11:11.296Z,6.95
2023-01-01T10:13:43.118Z,7.65
2023-01-01T10:16:23.996Z,8.00
2023-01-01T10:18:55.956Z,9.47
2023-01-01T10:21:28.354Z,9.35
2023-01-01T10:26:29.895Z,10.25
2023-01-01T10:29:02.564Z,10.88
2023-01-01T10:31:34.710Z,9.88
2023-01-01T10:34:12.868Z,8.77
2023-01-01T10:36:40.886Z,11.95
2023-01-01T10:39:12.122Z,10.85
2023-01-01T10:41:40.045Z,8.18
2023-01-01T10:44:08.346Z,9.65
2023-01-01T10:46:41.138Z,9.23
2023-01-01T10:49:12.277Z,8.73
2023-01-01T10:51:45.555Z,10.93
2023-01-01T10:54:31.785Z,8.57
2023-01-01T10:57:00.101Z,9.50
2023-01-01T10:59:37.773Z,9.23
2023-01-01T11:02:21.329Z,9.80
2023-01-01T11:04:50.878Z,10.50
2023-01-01T11:07:30.102Z,9.18
2023-01-01T11:10:04.666Z,9.98
2023-01-01T11:15:36.901Z,9.85
2023-01-01T11:18:07.090Z,9.20
2023-01-01T11:20:35.721Z,9.43
2023-01-01T11:23:20.663Z,9.93
2023-01-01T11:26:01.265Z,10.93
2023-01-01T11:28:31.640Z,10.23
2023-01-01T11:31:04.367Z,10.73
2023-01-01T11:33:34.728Z,12.00
2023-01-01T11:36:03.133Z,11.52
2023-01-01T11:38:31.173Z,12.90
2023-01-01T11:41:06.252Z,12.80
2023-01-01T11:43:40.893Z,9.80
2023-01-01T11:46:11.936Z,12.13
2023-01-01T11:48:44.095Z,11.05
2023-01-01T11:51:29.375Z,15.13
2023-01-01T11:54:24.010Z,13.93
2023-01-01T11:56:55.873Z,12.95
2023-01-01T11:59:29.464Z,13.82
2023-01-01T12:02:03.154Z,11.30
2023-01-01T12:04:36.676Z,11.20
2023-01-01T12:07:08.084Z,11.32
2023-01-01T12:09:41.569Z,12.13
2023-01-01T12:12:16.727Z,11.75
2023-01-01T12:14:52.209Z,11.88
2023-01-01T12:17:24.306Z,12.88
2023-01-01T12:20:00.309Z,10.43
2023-01-01T12:22:28.664Z,11.90
2023-01-01T12:24:57.758Z,10.70
2023-01-01T12:27:39.606Z,8.57
2023-01-01T12:30:15.622Z,8.35
2023-01-01T12:33:08.507Z,7.75
2023-01-01T12:35:53.154Z,9.57
2023-01-01T12:38:38.463Z,7.60
2023-01-01T12:41:12.772Z,7.82
2023-01-01T12:43:49.925Z,6.40
2023-01-01T12:46:30.257Z,7.38
2023-01-01T12:49:09.687Z,7.50
2023-01-01T12:51:48.727Z,8.15
2023-01-01T12:55:08.512Z,7.70
2023-01-01T12:57:41.044Z,6.53
2023-01-01T13:00:16.681Z,7.72
2023-01-01T13:02:50.027Z,8.43
2023-01-01T13:05:24.301Z,7.13
2023-01-01T13:07:55.542Z,9.30
2023-01-01T13:10:27.978Z,8.93
2023-01-01T13:12:57.896Z,8.07
2023-01-01T13:15:48.588Z,8.07
2023-01-01T13:18:26.070Z,9.02
2023-01-01T13:21:06.355Z,9.15
2023-01-01T13:24:03.962Z,7.00
2023-01-01T13:26:40.215Z,7.85
2023-01-01T13:29:45.012Z,8.95
2023-01-01T13:32:15.957Z,6.85
2023-01-01T13:35:16.067Z,8.15
2023-01-01T13:37:50.409Z,8.10
2023-01-01T13:40:50.860Z,9.20
2023-01-01T13:43:33.569Z,7.90
2023-01-01T13:46:13.594Z,10.20
2023-01-01T13:49:12.993Z,8.60
2023-01-01T13:52:07.867Z,10.52
2023-01-01T13:55:09.589Z,8.93
2023-01-01T13:57:55.185Z,10.13
2023-01-01T14:00:24.818Z,8.95
2023-01-01T14:02:59.396Z,10.18
2023-01-01T14:05:32.499Z,9.85
2023-01-01T14:08:00.547Z,11.20
2023-01-01T14:10:30.344Z,12.40
2023-01-01T14:13:17.127Z,10.98
2023-01-01T14:15:54.456Z,10.07
2023-01-01T14:18:28.389Z,11.05
2023-01-01T14:20:57.693Z,10.38
2023-01-01T14:23:32.172Z,9.85
2023-01-01T14:26:01.763Z,11.80
2023-01-01T14:28:31.635Z,9.55
2023-01-01T14:31:07.108Z,9.60
2023-01-01T14:33:39.035Z,11.68
2023-01-01T14:36:18.095Z,12.85
2023-01-01T14:38:47.955Z,14.32
2023-01-01T14:41:20.015Z,13.02
2023-01-01T14:43:50.689Z,11.65
2023-01-01T14:46:21.573Z,13.10
2023-01-01T14:48:52.074Z,11.77
2023-01-01T14:51:24.520Z,10.98
2023-01-01T14:53:53.919Z,12.73
2023-01-01T14:56:27.649Z,11.50
2023-01-01T14:59:03.229Z,11.45
2023-01-01T15:01:31.575Z,11.82
2023-01-01T15:04:01.241Z,12.18
2023-01-01T15:06:30.824Z,11.50
2023-01-01T15:08:59.071Z,10.73
2023-01-01T15:11:29.272Z,13.35
2023-01-01T15:14:00.995Z,11.75
2023-01-01T15:16:34.734Z,12.23
2023-01-01T15:19:18.345Z,11.00
2023-01-01T15:21:47.719Z,11.95
2023-01-01T15:24:20.333Z,13.43
2023-01-01T15:26:52.075Z,13.35
2023-01-01T15:29:28.577Z,13.43
2023-01-01T15:31:59.814Z,13.30
2023-01-01T15:34:31.190Z,12.43
2023-01-01T15:37:10.965Z,12.20
2023-01-01T15:39:50.628Z,12.73
2023-01-01T15:42:33.858Z,12.35
2023-01-01T15:45:19.899Z,13.32
2023-01-01T15:47:48.770Z,14.45
2023-01-01T15:50:24.447Z,11.60
2023-01-01T15:52:57.035Z,16.02
2023-01-01T15:55:29.031Z,14.45
2023-01-01T15:57:57.916Z,12.18
2023-01-01T16:00:28.374Z,12.55
2023-01-01T16:02:59.932Z,13.85
2023-01-01T16:05:28.851Z,11.50
2023-01-01T16:08:03.450Z,11.95
2023-01-01T16:10:32.731Z,11.93
2023-01-01T16:13:00.687Z,13.02
2023-01-01T16:15:28.876Z,12.30
2023-01-01T16:17:56.996Z,10.98
2023-01-01T16:20:25.453Z,12.40
2023-01-01T16:22:53.531Z,13.20
2023-01-01T16:25:23.851Z,13.73
2023-01-01T16:27:51.837Z,12.57
2023-01-01T16:30:19.931Z,12.20
2023-01-01T16:32:49.056Z,16.05
2023-01-01T16:35:17.541Z,13.27
2023-01-01T16:37:45.669Z,13.45
2023-01-01T16:40:13.869Z,11.30
2023-01-01T16:42:43.264Z,15.30
2023-01-01T16:45:19.011Z,13.10
2023-01-01T16:47:47.385Z,13.18
2023-01-01T16:50:15.517Z,12.18
2023-01-01T16:52:45.213Z,12.38
2023-01-01T16:55:13.618Z,15.45
2023-01-01T16:57:44.651Z,15.18
2023-01-01T17:00:13.928Z,16.58
2023-01-01T17:02:42.528Z,19.25
2023-01-01T17:05:11.756Z,17.75
2023-01-01T17:07:41.204Z,22.48
2023-01-01T17:10:09.681Z,22.67
2023-01-01T17:12:37.813Z,24.13
2023-01-01T17:15:10.128Z,27.75
2023-01-01T17:20:06.702Z,27.80
2023-01-01T17:22:34.804Z,30.38
2023-01-01T17:25:02.878Z,36.95
2023-01-01T17:27:30.866Z,32.28
2023-01-01T17:29:58.853Z,33.38
2023-01-01T17:32:28.161Z,35.78
2023-01-01T17:34:56.087Z,43.40
2023-01-01T17:37:24.215Z,48.78
2023-01-01T17:39:52.128Z,51.47
2023-01-01T17:42:20.110Z,45.15
2023-01-01T17:44:49.090Z,49.63
2023-01-01T17:47:17.019Z,50.90
2023-01-01T17:49:46.330Z,56.58
2023-01-01T17:52:14.288Z,54.33
2023-01-01T17:54:42.251Z,53.17
2023-01-01T17:57:10.145Z,48.95
2023-01-01T17:59:38.046Z,48.13
2023-01-01T18:02:08.948Z,47.95
2023-01-01T18:04:37.457Z,55.78
2023-01-01T18:07:07.289Z,62.92
2023-01-01T18:09:38.037Z,61.08
2023-01-01T18:12:07.086Z,64.38
2023-01-01T18:14:35.027Z,60.13
2023-01-01T18:17:03.101Z,62.55
2023-01-01T18:19:32.393Z,63.90
2023-01-01T18:22:00.402Z,61.53
2023-01-01T18:24:30.533Z,69.25
2023-01-01T18:26:58.814Z,65.28
2023-01-01T18:29:26.794Z,73.38
2023-01-01T18:31:54.790Z,70.22
2023-01-01T18:34:22.814Z,70.78
2023-01-01T18:36:50.734Z,70.20
2023-01-01T18:39:23.074Z,79.13
2023-01-01T18:44:30.665Z,73.00
2023-01-01T18:49:30.804Z,70.22
2023-01-01T18:52:07.826Z,75.78
2023-01-01T18:54:36.893Z,84.32
2023-01-01T18:57:25.216Z,80.60
2023-01-01T18:59:58.902Z,80.32
2023-01-01T19:02:38.245Z,83.55
2023-01-01T19:05:24.333Z,78.03
2023-01-01T19:07:58.406Z,74.53
2023-01-01T19:10:27.537Z,79.95
2023-01-01T19:12:57.542Z,82.55
2023-01-01T19:15:25.903Z,85.15
2023-01-01T19:17:55.807Z,81.95
2023-01-01T19:20:25.345Z,81.15
2023-01-01T19:22:53.607Z,80.28
2023-01-01T19:25:36.888Z,90.78
2023-01-01T19:28:37.811Z,88.32
2023-01-01T19:31:07.613Z,90.28
2023-01-01T19:33:35.895Z,91.10
2023-01-01T19:36:04.286Z,91.05
2023-01-01T19:38:32.556Z,90.32
2023-01-01T19:41:00.777Z,90.72
2023-01-01T19:43:29.098Z,90.53
2023-01-01T19:45:58.858Z,96.97
2023-01-01T19:48:27.085Z,92.60
2023-01-01T19:50:55.356Z,97.00
2023-01-01T19:53:23.580Z,99.65
2023-01-01T19:55:51.930Z,104.15
2023-01-01T19:58:22.296Z,106.75
2023-01-01T20:00:50.983Z,108.85
2023-01-01T20:06:10.751Z,96.53
2023-01-01T20:08:39.582Z,101.28
2023-01-01T20:11:08.714Z,108.97
2023-01-01T20:13:37.307Z,99.38
2023-01-01T20:16:06.000Z,102.68
2023-01-01T20:18:36.026Z,105.40
2023-01-01T20:21:25.995Z,108.80
2023-01-01T20:23:54.870Z,111.82
2023-01-01T20:26:23.824Z,105.75
2023-01-01T20:29:09.744Z,99.10
2023-01-01T20:31:38.181Z,104.18
2023-01-01T20:34:08.069Z,101.35
2023-01-01T20:36:53.577Z,105.53
2023-01-01T20:39:22.888Z,109.40
2023-01-01T20:41:51.908Z,100.55
2023-01-01T20:44:20.112Z,104.25
2023-01-01T20:46:49.745Z,103.25
2023-01-01T20:49:20.342Z,102.68
2023-01-01T20:51:51.278Z,118.30
2023-01-01T20:54:19.524Z,103.15
2023-01-01T20:56:47.769Z,105.70
2023-01-01T20:59:36.001Z,112.35
2023-01-01T21:02:05.428Z,109.93
2023-01-01T21:04:38.993Z,116.07
2023-01-01T21:07:09.025Z,112.03
2023-01-01T21:09:37.404Z,122.78
2023-01-01T21:12:06.435Z,114.78
2023-01-01T21:14:35.191Z,116.03
2023-01-01T21:17:18.980Z,117.43
2023-01-01T21:19:48.633Z,113.22
2023-01-01T21:22:16.956Z,113.38
2023-01-01T21:24:49.710Z,102.35
2023-01-01T21:27:25.503Z,111.18
2023-01-01T21:29:57.351Z,116.60
2023-01-01T21:32:28.566Z,106.32
2023-01-01T21:34:58.179Z,116.68
2023-01-01T21:37:51.082Z,114.18
2023-01-01T21:40:51.637Z,110.97
2023-01-01T21:43:39.980Z,120.80
2023-01-01T21:46:34.514Z,121.43
2023-01-01T21:49:07.504Z,116.22
2023-01-01T21:51:41.033Z,114.75
2023-01-01T21:54:26.077Z,115.88
2023-01-01T21:56:58.365Z,112.05
2023-01-01T22:02:32.530Z,109.20
2023-01-01T22:05:02.468Z,111.20
2023-01-01T22:10:26.369Z,109.57
2023-01-01T22:12:59.692Z,114.65
2023-01-01T22:15:38.384Z,117.40
2023-01-01T22:18:27.146Z,118.28
2023-01-01T22:20:56.252Z,107.82
2023-01-01T22:23:35.366Z,116.05
2023-01-01T22:26:06.014Z,119.15
2023-01-01T22:28:42.680Z,115.63
2023-01-01T22:31:14.664Z,123.18
2023-01-01T22:33:46.100Z,114.85
2023-01-01T22:36:17.673Z,122.37
2023-01-01T22:38:47.450Z,119.95
2023-01-01T22:41:16.400Z,121.03
2023-01-01T22:43:46.582Z,124.47
2023-01-01T22:46:21.771Z,121.80
2023-01-01T22:48:57.275Z,121.10
2023-01-01T22:51:29.145Z,131.45
2023-01-01T22:53:58.728Z,123.53
2023-01-01T22:56:26.953Z,122.85
2023-01-01T22:58:57.500Z,123.15
2023-01-01T23:01:26.175Z,120.47
2023-01-01T23:03:54.712Z,130.60
2023-01-01T23:06:23.407Z,125.95
2023-01-01T23:08:53.192Z,124.88
2023-01-01T23:11:23.759Z,119.68
2023-01-01T23:14:18.425Z,123.95
2023-01-01T23:16:46.643Z,125.68
2023-01-01T23:19:15.048Z,119.20
2023-01-01T23:21:43.661Z,120.47
2023-01-01T23:24:16.143Z,115.95
2023-01-01T23:26:46.735Z,119.93
2023-01-01T23:29:15.961Z,120.68
2023-01-01T23:31:45.379Z,117.68
2023-01-01T23:34:16.690Z,107.13
2023-01-01T23:36:45.699Z,104.85
2023-01-01T23:39:13.825Z,113.18
2023-01-01T23:41:42.055Z,114.15
2023-01-01T23:44:11.875Z,110.40
2023-01-01T23:46:40.729Z,110.15
2023-01-01T23:49:09.811Z,103.90
2023-01-01T23:51:40.008Z,111.32
2023-01-01T23:54:08.545Z,102.82
2023-01-01T23:56:36.737Z,98.63
2023-01-01T23:59:04.990Z,98.60
